sensor_id;sensor_type;location;lat;lon;timestamp;pressure;altitude;pressure_sealevel;temperature;humidity
41947;BME280;27638;42.184;24.848;2023-04-19T00:00:31;99418.84;;;12.95;100.00
41947;BME280;27638;42.184;24.848;2023-04-19T00:02:57;99416.53;;;12.92;100.00
41947;BME280;27638;42.184;24.848;2023-04-19T00:05:22;99426.34;;;12.91;100.00
41947;BME280;27638;42.184;24.848;2023-04-19T00:07:49;99414.53;;;12.79;100.00
41947;BME280;27638;42.184;24.848;2023-04-19T00:10:15;99411.50;;;12.82;100.00
41947;BME280;27638;42.184;24.848;2023-04-19T00:12:41;99414.81;;;12.84;100.00
41947;BME280;27638;42.184;24.848;2023-04-19T00:15:06;99405.00;;;12.85;100.00
41947;BME280;27638;42.184;24.848;2023-04-19T00:17:33;99402.44;;;12.91;100.00
41947;BME280;27638;42.184;24.848;2023-04-19T00:19:59;99400.22;;;12.95;100.00
41947;BME280;27638;42.184;24.848;2023-04-19T00:22:25;99402.53;;;12.83;100.00
41947;BME280;27638;42.184;24.848;2023-04-19T00:24:51;99407.66;;;12.85;100.00
41947;BME280;27638;42.184;24.848;2023-04-19T00:27:16;99397.88;;;12.85;100.00
41947;BME280;27638;42.184;24.848;2023-04-19T00:29:42;99385.94;;;12.96;100.00
41947;BME280;27638;42.184;24.848;2023-04-19T00:32:07;99391.69;;;12.99;100.00
41947;BME280;27638;42.184;24.848;2023-04-19T00:34:33;99390.06;;;12.98;100.00
41947;BME280;27638;42.184;24.848;2023-04-19T00:36:59;99396.47;;;13.04;100.00
41947;BME280;27638;42.184;24.848;2023-04-19T00:39:24;99379.06;;;13.01;100.00
41947;BME280;27638;42.184;24.848;2023-04-19T00:41:50;99385.28;;;12.94;100.00
41947;BME280;27638;42.184;24.848;2023-04-19T00:44:15;99382.66;;;12.79;100.00
41947;BME280;27638;42.184;24.848;2023-04-19T00:46:41;99381.91;;;12.85;100.00
41947;BME280;27638;42.184;24.848;2023-04-19T00:49:08;99372.41;;;12.76;100.00
41947;BME280;27638;42.184;24.848;2023-04-19T00:51:34;99381.00;;;12.78;100.00
41947;BME280;27638;42.184;24.848;2023-04-19T00:54:01;99381.47;;;12.82;100.00
41947;BME280;27638;42.184;24.848;2023-04-19T00:56:28;99381.66;;;12.80;100.00
41947;BME280;27638;42.184;24.848;2023-04-19T00:58:55;99384.75;;;12.84;100.00
41947;BME280;27638;42.184;24.848;2023-04-19T01:01:21;99380.91;;;12.86;100.00
41947;BME280;27638;42.184;24.848;2023-04-19T01:03:47;99377.25;;;12.87;100.00
41947;BME280;27638;42.184;24.848;2023-04-19T01:06:13;99383.75;;;12.85;100.00
41947;BME280;27638;42.184;24.848;2023-04-19T01:08:38;99376.69;;;12.92;100.00
41947;BME280;27638;42.184;24.848;2023-04-19T01:11:04;99376.56;;;13.00;100.00
41947;BME280;27638;42.184;24.848;2023-04-19T01:13:30;99379.13;;;13.08;100.00
41947;BME280;27638;42.184;24.848;2023-04-19T01:15:56;99371.59;;;13.11;100.00
41947;BME280;27638;42.184;24.848;2023-04-19T01:18:22;99371.63;;;12.97;100.00
41947;BME280;27638;42.184;24.848;2023-04-19T01:20:50;99367.41;;;13.02;100.00
41947;BME280;27638;42.184;24.848;2023-04-19T01:23:15;99365.69;;;12.95;100.00
41947;BME280;27638;42.184;24.848;2023-04-19T01:25:41;99358.44;;;13.03;100.00
41947;BME280;27638;42.184;24.848;2023-04-19T01:28:06;99362.28;;;13.01;100.00
41947;BME280;27638;42.184;24.848;2023-04-19T01:30:32;99358.16;;;12.98;100.00
41947;BME280;27638;42.184;24.848;2023-04-19T01:32:58;99355.56;;;12.69;100.00
41947;BME280;27638;42.184;24.848;2023-04-19T01:35:23;99357.44;;;12.90;100.00
41947;BME280;27638;42.184;24.848;2023-04-19T01:37:49;99355.13;;;13.01;100.00
41947;BME280;27638;42.184;24.848;2023-04-19T01:40:16;99356.03;;;13.08;100.00
41947;BME280;27638;42.184;24.848;2023-04-19T01:42:41;99346.78;;;13.04;100.00
41947;BME280;27638;42.184;24.848;2023-04-19T01:45:07;99354.75;;;13.04;100.00
41947;BME280;27638;42.184;24.848;2023-04-19T01:47:32;99347.16;;;13.01;100.00
41947;BME280;27638;42.184;24.848;2023-04-19T01:49:58;99343.50;;;13.02;100.00
41947;BME280;27638;42.184;24.848;2023-04-19T01:52:23;99341.47;;;13.04;100.00
41947;BME280;27638;42.184;24.848;2023-04-19T01:54:49;99336.97;;;13.05;100.00
41947;BME280;27638;42.184;24.848;2023-04-19T01:57:14;99337.97;;;13.04;100.00
41947;BME280;27638;42.184;24.848;2023-04-19T01:59:40;99330.09;;;13.10;100.00
41947;BME280;27638;42.184;24.848;2023-04-19T02:02:06;99337.44;;;13.08;100.00
41947;BME280;27638;42.184;24.848;2023-04-19T02:04:33;99338.09;;;12.96;100.00
41947;BME280;27638;42.184;24.848;2023-04-19T02:06:58;99330.94;;;12.96;100.00
41947;BME280;27638;42.184;24.848;2023-04-19T02:09:24;99336.72;;;13.00;100.00
41947;BME280;27638;42.184;24.848;2023-04-19T02:11:49;99334.94;;;13.07;100.00
41947;BME280;27638;42.184;24.848;2023-04-19T02:14:15;99328.25;;;13.11;100.00
41947;BME280;27638;42.184;24.848;2023-04-19T02:16:40;99327.16;;;13.20;100.00
41947;BME280;27638;42.184;24.848;2023-04-19T02:19:06;99330.31;;;13.30;100.00
41947;BME280;27638;42.184;24.848;2023-04-19T02:21:31;99324.25;;;13.36;100.00
41947;BME280;27638;42.184;24.848;2023-04-19T02:23:57;99324.25;;;13.36;100.00
41947;BME280;27638;42.184;24.848;2023-04-19T02:26:22;99331.06;;;13.24;100.00
41947;BME280;27638;42.184;24.848;2023-04-19T02:28:50;99332.41;;;13.35;100.00
41947;BME280;27638;42.184;24.848;2023-04-19T02:31:16;99316.25;;;13.36;100.00
41947;BME280;27638;42.184;24.848;2023-04-19T02:33:42;99320.75;;;13.36;100.00
41947;BME280;27638;42.184;24.848;2023-04-19T02:36:08;99321.00;;;13.41;100.00
41947;BME280;27638;42.184;24.848;2023-04-19T02:38:33;99328.47;;;13.31;100.00
41947;BME280;27638;42.184;24.848;2023-04-19T02:40:59;99311.72;;;13.30;100.00
41947;BME280;27638;42.184;24.848;2023-04-19T02:43:25;99319.94;;;13.35;100.00
41947;BME280;27638;42.184;24.848;2023-04-19T02:45:51;99321.38;;;13.38;100.00
41947;BME280;27638;42.184;24.848;2023-04-19T02:48:17;99316.63;;;13.33;100.00
41947;BME280;27638;42.184;24.848;2023-04-19T02:50:42;99314.69;;;13.21;100.00
41947;BME280;27638;42.184;24.848;2023-04-19T02:53:07;99313.47;;;13.23;100.00
41947;BME280;27638;42.184;24.848;2023-04-19T02:55:33;99316.59;;;13.27;100.00
41947;BME280;27638;42.184;24.848;2023-04-19T02:57:58;99324.19;;;13.30;100.00
41947;BME280;27638;42.184;24.848;2023-04-19T03:00:24;99318.28;;;13.34;100.00
41947;BME280;27638;42.184;24.848;2023-04-19T03:02:49;99316.50;;;13.41;100.00
41947;BME280;27638;42.184;24.848;2023-04-19T03:05:15;99315.75;;;13.48;100.00
41947;BME280;27638;42.184;24.848;2023-04-19T03:07:40;99316.25;;;13.36;100.00
41947;BME280;27638;42.184;24.848;2023-04-19T03:10:06;99313.03;;;13.41;100.00
41947;BME280;27638;42.184;24.848;2023-04-19T03:12:32;99310.94;;;13.36;100.00
41947;BME280;27638;42.184;24.848;2023-04-19T03:14:57;99313.34;;;13.31;100.00
41947;BME280;27638;42.184;24.848;2023-04-19T03:17:23;99316.13;;;13.23;100.00
41947;BME280;27638;42.184;24.848;2023-04-19T03:19:48;99311.56;;;13.17;100.00
41947;BME280;27638;42.184;24.848;2023-04-19T03:22:14;99308.09;;;13.17;100.00
41947;BME280;27638;42.184;24.848;2023-04-19T03:24:39;99308.09;;;13.17;100.00
41947;BME280;27638;42.184;24.848;2023-04-19T03:27:05;99305.88;;;13.20;100.00
41947;BME280;27638;42.184;24.848;2023-04-19T03:29:30;99306.69;;;13.21;100.00
41947;BME280;27638;42.184;24.848;2023-04-19T03:31:56;99313.41;;;13.17;100.00
41947;BME280;27638;42.184;24.848;2023-04-19T03:34:21;99316.97;;;13.24;100.00
41947;BME280;27638;42.184;24.848;2023-04-19T03:36:46;99320.31;;;13.32;100.00
41947;BME280;27638;42.184;24.848;2023-04-19T03:39:12;99317.72;;;13.39;100.00
41947;BME280;27638;42.184;24.848;2023-04-19T03:41:39;99322.59;;;13.35;100.00
41947;BME280;27638;42.184;24.848;2023-04-19T03:44:04;99331.13;;;13.31;100.00
41947;BME280;27638;42.184;24.848;2023-04-19T03:46:30;99319.50;;;13.32;100.00
41947;BME280;27638;42.184;24.848;2023-04-19T03:48:56;99325.44;;;13.34;100.00
41947;BME280;27638;42.184;24.848;2023-04-19T03:51:21;99326.47;;;13.33;100.00
41947;BME280;27638;42.184;24.848;2023-04-19T03:53:47;99320.88;;;13.28;100.00
41947;BME280;27638;42.184;24.848;2023-04-19T03:56:12;99316.84;;;13.32;100.00
41947;BME280;27638;42.184;24.848;2023-04-19T03:58:38;99318.28;;;13.34;100.00
41947;BME280;27638;42.184;24.848;2023-04-19T04:01:03;99314.03;;;13.40;100.00
41947;BME280;27638;42.184;24.848;2023-04-19T04:03:30;99312.00;;;13.42;100.00
41947;BME280;27638;42.184;24.848;2023-04-19T04:05:56;99317.53;;;13.40;100.00
41947;BME280;27638;42.184;24.848;2023-04-19T04:08:22;99316.72;;;13.40;100.00
41947;BME280;27638;42.184;24.848;2023-04-19T04:10:47;99318.53;;;13.39;100.00
41947;BME280;27638;42.184;24.848;2023-04-19T04:13:13;99310.63;;;13.46;100.00
41947;BME280;27638;42.184;24.848;2023-04-19T04:15:38;99302.84;;;13.45;100.00
41947;BME280;27638;42.184;24.848;2023-04-19T04:18:04;99304.03;;;13.42;100.00
41947;BME280;27638;42.184;24.848;2023-04-19T04:20:29;99306.25;;;13.38;100.00
41947;BME280;27638;42.184;24.848;2023-04-19T04:22:55;99306.63;;;13.35;100.00
41947;BME280;27638;42.184;24.848;2023-04-19T04:25:21;99309.09;;;13.37;100.00
41947;BME280;27638;42.184;24.848;2023-04-19T04:27:49;99315.25;;;13.37;100.00
41947;BME280;27638;42.184;24.848;2023-04-19T04:30:15;99310.63;;;13.46;100.00
41947;BME280;27638;42.184;24.848;2023-04-19T04:32:41;99317.41;;;13.49;100.00
41947;BME280;27638;42.184;24.848;2023-04-19T04:35:08;99313.19;;;13.54;100.00
41947;BME280;27638;42.184;24.848;2023-04-19T04:37:34;99309.13;;;13.58;100.00
41947;BME280;27638;42.184;24.848;2023-04-19T04:40:01;99316.47;;;13.56;100.00
41947;BME280;27638;42.184;24.848;2023-04-19T04:42:26;99323.44;;;13.57;100.00
41947;BME280;27638;42.184;24.848;2023-04-19T04:44:52;99320.97;;;13.56;100.00
41947;BME280;27638;42.184;24.848;2023-04-19T04:47:19;99331.81;;;13.54;100.00
41947;BME280;27638;42.184;24.848;2023-04-19T04:49:45;99325.47;;;13.55;100.00
41947;BME280;27638;42.184;24.848;2023-04-19T04:52:10;99316.03;;;13.53;100.00
41947;BME280;27638;42.184;24.848;2023-04-19T04:54:36;99323.06;;;13.60;100.00
41947;BME280;27638;42.184;24.848;2023-04-19T04:57:01;99323.88;;;13.61;100.00
41947;BME280;27638;42.184;24.848;2023-04-19T04:59:28;99318.31;;;13.56;100.00
41947;BME280;27638;42.184;24.848;2023-04-19T05:01:53;99325.66;;;13.54;100.00
41947;BME280;27638;42.184;24.848;2023-04-19T05:04:19;99327.84;;;13.50;100.00
41947;BME280;27638;42.184;24.848;2023-04-19T05:06:44;99327.84;;;13.50;100.00
41947;BME280;27638;42.184;24.848;2023-04-19T05:09:10;99316.72;;;13.40;100.00
41947;BME280;27638;42.184;24.848;2023-04-19T05:11:35;99319.38;;;13.40;100.00
41947;BME280;27638;42.184;24.848;2023-04-19T05:14:01;99317.28;;;13.35;100.00
41947;BME280;27638;42.184;24.848;2023-04-19T05:16:27;99320.13;;;13.34;100.00
41947;BME280;27638;42.184;24.848;2023-04-19T05:18:52;99326.84;;;13.30;100.00
41947;BME280;27638;42.184;24.848;2023-04-19T05:21:18;99327.16;;;13.20;100.00
41947;BME280;27638;42.184;24.848;2023-04-19T05:23:43;99330.94;;;13.32;100.00
41947;BME280;27638;42.184;24.848;2023-04-19T05:26:09;99324.19;;;13.15;100.00
41947;BME280;27638;42.184;24.848;2023-04-19T05:28:41;99332.38;;;13.14;100.00
41947;BME280;27638;42.184;24.848;2023-04-19T05:31:10;99330.25;;;13.24;100.00
41947;BME280;27638;42.184;24.848;2023-04-19T05:33:35;99334.31;;;13.20;100.00
41947;BME280;27638;42.184;24.848;2023-04-19T05:36:01;99332.59;;;13.33;100.00
41947;BME280;27638;42.184;24.848;2023-04-19T05:38:26;99323.66;;;13.41;100.00
41947;BME280;27638;42.184;24.848;2023-04-19T05:40:51;99332.09;;;13.45;100.00
41947;BME280;27638;42.184;24.848;2023-04-19T05:43:17;99329.44;;;13.45;100.00
41947;BME280;27638;42.184;24.848;2023-04-19T05:45:42;99339.88;;;13.46;100.00
41947;BME280;27638;42.184;24.848;2023-04-19T05:48:08;99337.09;;;13.33;100.00
41947;BME280;27638;42.184;24.848;2023-04-19T05:50:34;99332.22;;;13.36;100.00
41947;BME280;27638;42.184;24.848;2023-04-19T05:53:01;99325.88;;;13.37;100.00
41947;BME280;27638;42.184;24.848;2023-04-19T05:55:26;99327.34;;;13.40;100.00
41947;BME280;27638;42.184;24.848;2023-04-19T05:57:52;99324.31;;;13.43;100.00
41947;BME280;27638;42.184;24.848;2023-04-19T06:00:17;99327.22;;;13.48;100.00
41947;BME280;27638;42.184;24.848;2023-04-19T06:02:43;99321.34;;;13.53;100.00
41947;BME280;27638;42.184;24.848;2023-04-19T06:05:09;99321.97;;;13.55;100.00
41947;BME280;27638;42.184;24.848;2023-04-19T06:07:34;99323.25;;;13.59;100.00
41947;BME280;27638;42.184;24.848;2023-04-19T06:10:00;99326.34;;;13.62;100.00
41947;BME280;27638;42.184;24.848;2023-04-19T06:12:26;99319.00;;;13.64;100.00
41947;BME280;27638;42.184;24.848;2023-04-19T06:14:51;99323.50;;;13.64;100.00
41947;BME280;27638;42.184;24.848;2023-04-19T06:17:17;99316.53;;;13.63;100.00
41947;BME280;27638;42.184;24.848;2023-04-19T06:19:47;99322.09;;;13.68;100.00
41947;BME280;27638;42.184;24.848;2023-04-19T06:22:13;99319.19;;;13.63;100.00
41947;BME280;27638;42.184;24.848;2023-04-19T06:24:38;99329.81;;;13.63;100.00
41947;BME280;27638;42.184;24.848;2023-04-19T06:27:04;99331.72;;;13.69;100.00
41947;BME280;27638;42.184;24.848;2023-04-19T06:29:30;99335.41;;;13.68;100.00
41947;BME280;27638;42.184;24.848;2023-04-19T06:31:55;99339.31;;;13.72;100.00
41947;BME280;27638;42.184;24.848;2023-04-19T06:34:21;99343.06;;;13.78;100.00
41947;BME280;27638;42.184;24.848;2023-04-19T06:36:46;99340.25;;;13.86;100.00
41947;BME280;27638;42.184;24.848;2023-04-19T06:39:12;99339.47;;;13.92;100.00
41947;BME280;27638;42.184;24.848;2023-04-19T06:41:37;99339.28;;;13.93;100.00
41947;BME280;27638;42.184;24.848;2023-04-19T06:44:03;99339.53;;;13.98;100.00
41947;BME280;27638;42.184;24.848;2023-04-19T06:46:29;99343.44;;;14.02;100.00
41947;BME280;27638;42.184;24.848;2023-04-19T06:48:54;99340.59;;;14.04;100.00
41947;BME280;27638;42.184;24.848;2023-04-19T06:51:20;99344.94;;;14.12;100.00
41947;BME280;27638;42.184;24.848;2023-04-19T06:53:46;99347.81;;;14.10;100.00
41947;BME280;27638;42.184;24.848;2023-04-19T06:56:12;99336.97;;;14.12;100.00
41947;BME280;27638;42.184;24.848;2023-04-19T06:58:37;99344.59;;;14.21;100.00
41947;BME280;27638;42.184;24.848;2023-04-19T07:01:03;99346.72;;;14.32;100.00
41947;BME280;27638;42.184;24.848;2023-04-19T07:03:29;99344.88;;;14.33;100.00
41947;BME280;27638;42.184;24.848;2023-04-19T07:05:54;99345.94;;;14.38;100.00
41947;BME280;27638;42.184;24.848;2023-04-19T07:08:21;99336.28;;;14.37;100.00
41947;BME280;27638;42.184;24.848;2023-04-19T07:10:47;99346.13;;;14.37;100.00
41947;BME280;27638;42.184;24.848;2023-04-19T07:13:12;99347.56;;;14.39;100.00
41947;BME280;27638;42.184;24.848;2023-04-19T07:15:38;99346.41;;;14.42;100.00
41947;BME280;27638;42.184;24.848;2023-04-19T07:18:04;99353.38;;;14.43;100.00
41947;BME280;27638;42.184;24.848;2023-04-19T07:20:29;99348.41;;;14.40;100.00
41947;BME280;27638;42.184;24.848;2023-04-19T07:22:57;99354.03;;;14.52;100.00
41947;BME280;27638;42.184;24.848;2023-04-19T07:25:23;99347.13;;;14.57;100.00
41947;BME280;27638;42.184;24.848;2023-04-19T07:27:48;99350.00;;;14.62;100.00
41947;BME280;27638;42.184;24.848;2023-04-19T07:30:14;99354.31;;;14.63;100.00
41947;BME280;27638;42.184;24.848;2023-04-19T07:32:39;99355.34;;;14.62;100.00
41947;BME280;27638;42.184;24.848;2023-04-19T07:35:05;99362.31;;;14.63;100.00
41947;BME280;27638;42.184;24.848;2023-04-19T07:37:31;99357.41;;;14.67;100.00
41947;BME280;27638;42.184;24.848;2023-04-19T07:39:57;99359.72;;;14.77;100.00
41947;BME280;27638;42.184;24.848;2023-04-19T07:42:23;99359.91;;;14.75;100.00
41947;BME280;27638;42.184;24.848;2023-04-19T07:44:49;99364.16;;;14.63;100.00
41947;BME280;27638;42.184;24.848;2023-04-19T07:47:15;99360.56;;;14.84;100.00
41947;BME280;27638;42.184;24.848;2023-04-19T07:49:40;99371.88;;;14.92;100.00
41947;BME280;27638;42.184;24.848;2023-04-19T07:52:08;99374.78;;;15.04;100.00
41947;BME280;27638;42.184;24.848;2023-04-19T07:54:34;99374.41;;;15.14;100.00
41947;BME280;27638;42.184;24.848;2023-04-19T07:57:00;99373.22;;;15.23;100.00
41947;BME280;27638;42.184;24.848;2023-04-19T07:59:26;99376.50;;;15.25;100.00
41947;BME280;27638;42.184;24.848;2023-04-19T08:01:51;99381.66;;;15.33;100.00
41947;BME280;27638;42.184;24.848;2023-04-19T08:04:17;99379.81;;;15.40;99.89
41947;BME280;27638;42.184;24.848;2023-04-19T08:06:44;99385.38;;;15.45;99.16
41947;BME280;27638;42.184;24.848;2023-04-19T08:09:10;99380.25;;;15.50;98.18
41947;BME280;27638;42.184;24.848;2023-04-19T08:11:35;99382.38;;;15.61;97.84
41947;BME280;27638;42.184;24.848;2023-04-19T08:14:01;99380.13;;;15.72;97.68
41947;BME280;27638;42.184;24.848;2023-04-19T08:16:27;99375.41;;;15.67;96.53
41947;BME280;27638;42.184;24.848;2023-04-19T08:18:54;99370.28;;;15.92;97.69
41947;BME280;27638;42.184;24.848;2023-04-19T08:21:20;99364.75;;;16.07;95.33
41947;BME280;27638;42.184;24.848;2023-04-19T08:23:45;99367.00;;;16.16;94.15
41947;BME280;27638;42.184;24.848;2023-04-19T08:26:11;99369.44;;;16.31;94.86
41947;BME280;27638;42.184;24.848;2023-04-19T08:28:37;99365.50;;;16.47;96.48
41947;BME280;27638;42.184;24.848;2023-04-19T08:31:05;99362.59;;;16.61;94.28
41947;BME280;27638;42.184;24.848;2023-04-19T08:33:34;99359.34;;;16.66;91.81
41947;BME280;27638;42.184;24.848;2023-04-19T08:36:00;99362.81;;;16.73;91.67
41947;BME280;27638;42.184;24.848;2023-04-19T08:38:26;99364.41;;;16.87;89.78
41947;BME280;27638;42.184;24.848;2023-04-19T08:40:52;99366.19;;;17.00;88.67
41947;BME280;27638;42.184;24.848;2023-04-19T08:43:19;99361.00;;;17.12;88.14
41947;BME280;27638;42.184;24.848;2023-04-19T08:45:47;99357.44;;;17.24;88.61
41947;BME280;27638;42.184;24.848;2023-04-19T08:48:14;99352.13;;;17.49;87.98
41947;BME280;27638;42.184;24.848;2023-04-19T08:50:43;99350.38;;;17.37;86.99
41947;BME280;27638;42.184;24.848;2023-04-19T08:53:14;99348.31;;;17.64;87.39
41947;BME280;27638;42.184;24.848;2023-04-19T08:55:41;99342.28;;;17.81;87.37
41947;BME280;27638;42.184;24.848;2023-04-19T08:58:07;99339.22;;;17.78;86.21
41947;BME280;27638;42.184;24.848;2023-04-19T09:00:37;99349.94;;;17.78;85.26
41947;BME280;27638;42.184;24.848;2023-04-19T09:03:06;99339.59;;;18.06;86.75
41947;BME280;27638;42.184;24.848;2023-04-19T09:05:31;99339.09;;;18.34;86.18
41947;BME280;27638;42.184;24.848;2023-04-19T09:08:20;99347.34;;;18.14;83.52
41947;BME280;27638;42.184;24.848;2023-04-19T09:11:00;99352.16;;;18.06;85.61
41947;BME280;27638;42.184;24.848;2023-04-19T09:13:27;99352.31;;;18.11;85.87
41947;BME280;27638;42.184;24.848;2023-04-19T09:15:54;99353.41;;;18.03;83.91
41947;BME280;27638;42.184;24.848;2023-04-19T09:18:22;99353.47;;;17.97;83.80
41947;BME280;27638;42.184;24.848;2023-04-19T09:20:49;99347.69;;;18.00;85.80
41947;BME280;27638;42.184;24.848;2023-04-19T09:23:22;99355.28;;;18.03;83.55
41947;BME280;27638;42.184;24.848;2023-04-19T09:25:59;99351.91;;;17.89;81.43
41947;BME280;27638;42.184;24.848;2023-04-19T09:28:29;99345.09;;;17.55;83.34
41947;BME280;27638;42.184;24.848;2023-04-19T09:30:55;99354.78;;;17.88;83.92
41947;BME280;27638;42.184;24.848;2023-04-19T09:33:37;99351.47;;;17.92;82.78
41947;BME280;27638;42.184;24.848;2023-04-19T09:36:06;99340.09;;;17.97;82.67
41947;BME280;27638;42.184;24.848;2023-04-19T09:38:50;99345.22;;;17.98;81.69
41947;BME280;27638;42.184;24.848;2023-04-19T09:41:16;99343.75;;;18.02;80.77
41947;BME280;27638;42.184;24.848;2023-04-19T09:43:42;99335.88;;;18.07;82.64
41947;BME280;27638;42.184;24.848;2023-04-19T09:46:08;99343.41;;;18.17;81.63
41947;BME280;27638;42.184;24.848;2023-04-19T09:48:33;99337.38;;;18.22;78.67
41947;BME280;27638;42.184;24.848;2023-04-19T09:51:01;99337.97;;;18.24;78.71
41947;BME280;27638;42.184;24.848;2023-04-19T09:53:28;99334.09;;;18.19;76.36
41947;BME280;27638;42.184;24.848;2023-04-19T09:55:54;99334.75;;;18.15;78.19
41947;BME280;27638;42.184;24.848;2023-04-19T09:58:20;99329.13;;;18.23;76.79
41947;BME280;27638;42.184;24.848;2023-04-19T10:00:48;99325.63;;;18.41;79.29
41947;BME280;27638;42.184;24.848;2023-04-19T10:03:15;99320.19;;;18.47;78.58
41947;BME280;27638;42.184;24.848;2023-04-19T10:05:41;99324.75;;;18.47;76.61
41947;BME280;27638;42.184;24.848;2023-04-19T10:08:09;99328.31;;;18.41;73.57
41947;BME280;27638;42.184;24.848;2023-04-19T10:10:36;99327.78;;;18.50;72.09
41947;BME280;27638;42.184;24.848;2023-04-19T10:13:05;99325.03;;;18.57;74.97
41947;BME280;27638;42.184;24.848;2023-04-19T10:15:31;99316.16;;;18.57;71.19
41947;BME280;27638;42.184;24.848;2023-04-19T10:17:58;99310.44;;;18.53;70.71
41947;BME280;27638;42.184;24.848;2023-04-19T10:20:33;99316.16;;;18.57;69.39
41947;BME280;27638;42.184;24.848;2023-04-19T10:23:01;99302.13;;;18.61;74.22
41947;BME280;27638;42.184;24.848;2023-04-19T10:25:28;99307.19;;;18.69;74.06
41947;BME280;27638;42.184;24.848;2023-04-19T10:27:54;99306.31;;;18.75;71.58
41947;BME280;27638;42.184;24.848;2023-04-19T10:30:23;99309.59;;;18.77;70.11
41947;BME280;27638;42.184;24.848;2023-04-19T10:32:56;99306.13;;;18.70;65.96
41947;BME280;27638;42.184;24.848;2023-04-19T10:35:25;99297.66;;;18.73;69.22
41947;BME280;27638;42.184;24.848;2023-04-19T10:38:13;99298.09;;;18.70;67.17
41947;BME280;27638;42.184;24.848;2023-04-19T10:40:57;99287.81;;;18.49;72.00
41947;BME280;27638;42.184;24.848;2023-04-19T10:43:27;99295.75;;;18.56;70.81
41947;BME280;27638;42.184;24.848;2023-04-19T10:45:53;99285.63;;;18.58;72.91
41947;BME280;27638;42.184;24.848;2023-04-19T10:54:04;99292.50;;;18.35;67.01
41947;BME280;27638;42.184;24.848;2023-04-19T11:01:44;99284.16;;;18.07;70.75
41947;BME280;27638;42.184;24.848;2023-04-19T11:04:14;99288.25;;;18.09;69.77
41947;BME280;27638;42.184;24.848;2023-04-19T11:09:32;99288.47;;;18.26;67.67
41947;BME280;27638;42.184;24.848;2023-04-19T11:12:03;99277.31;;;18.29;67.84
41947;BME280;27638;42.184;24.848;2023-04-19T11:14:53;99275.31;;;17.81;73.98
41947;BME280;27638;42.184;24.848;2023-04-19T11:17:27;99269.88;;;17.70;74.88
41947;BME280;27638;42.184;24.848;2023-04-19T11:19:59;99268.41;;;17.92;77.68
41947;BME280;27638;42.184;24.848;2023-04-19T11:22:43;99287.00;;;17.87;85.53
41947;BME280;27638;42.184;24.848;2023-04-19T11:25:18;99280.16;;;17.66;91.59
41947;BME280;27638;42.184;24.848;2023-04-19T11:27:50;99281.22;;;17.34;90.85
41947;BME280;27638;42.184;24.848;2023-04-19T11:30:18;99282.78;;;17.16;91.78
41947;BME280;27638;42.184;24.848;2023-04-19T11:32:49;99281.91;;;17.22;94.92
41947;BME280;27638;42.184;24.848;2023-04-19T11:35:21;99279.16;;;17.04;89.63
41947;BME280;27638;42.184;24.848;2023-04-19T11:37:47;99274.09;;;16.89;95.83
41947;BME280;27638;42.184;24.848;2023-04-19T11:40:17;99277.66;;;16.77;94.13
41947;BME280;27638;42.184;24.848;2023-04-19T11:42:44;99283.28;;;16.42;91.98
41947;BME280;27638;42.184;24.848;2023-04-19T11:45:10;99276.88;;;16.50;89.47
41947;BME280;27638;42.184;24.848;2023-04-19T11:47:49;99277.09;;;16.48;94.32
41947;BME280;27638;42.184;24.848;2023-04-19T11:50:40;99276.81;;;16.63;91.12
41947;BME280;27638;42.184;24.848;2023-04-19T11:53:17;99283.84;;;16.71;93.16
41947;BME280;27638;42.184;24.848;2023-04-19T11:55:49;99284.06;;;16.69;91.45
41947;BME280;27638;42.184;24.848;2023-04-19T12:00:56;99281.38;;;16.69;90.61
41947;BME280;27638;42.184;24.848;2023-04-19T12:03:26;99272.31;;;16.64;95.45
41947;BME280;27638;42.184;24.848;2023-04-19T12:05:56;99285.28;;;16.60;96.01
41947;BME280;27638;42.184;24.848;2023-04-19T12:08:36;99283.41;;;16.60;94.58
41947;BME280;27638;42.184;24.848;2023-04-19T12:11:03;99286.34;;;16.66;92.34
41947;BME280;27638;42.184;24.848;2023-04-19T12:13:29;99284.06;;;16.69;89.03
41947;BME280;27638;42.184;24.848;2023-04-19T12:15:56;99274.97;;;16.64;88.80
41947;BME280;27638;42.184;24.848;2023-04-19T12:18:22;99284.47;;;16.53;88.32
41947;BME280;27638;42.184;24.848;2023-04-19T12:20:50;99282.63;;;16.53;91.08
41947;BME280;27638;42.184;24.848;2023-04-19T12:23:17;99297.84;;;16.53;89.95
41947;BME280;27638;42.184;24.848;2023-04-19T12:25:44;99288.03;;;16.40;88.87
41947;BME280;27638;42.184;24.848;2023-04-19T12:28:11;99285.78;;;16.37;88.48
41947;BME280;27638;42.184;24.848;2023-04-19T12:30:38;99284.28;;;16.48;88.59
41947;BME280;27638;42.184;24.848;2023-04-19T12:33:05;99281.81;;;16.53;87.73
41947;BME280;27638;42.184;24.848;2023-04-19T12:35:30;99289.22;;;16.51;92.58
41947;BME280;27638;42.184;24.848;2023-04-19T12:37:57;99285.72;;;16.50;93.60
41947;BME280;27638;42.184;24.848;2023-04-19T12:40:24;99284.50;;;16.46;96.63
41947;BME280;27638;42.184;24.848;2023-04-19T12:42:51;99286.19;;;16.34;100.00
41947;BME280;27638;42.184;24.848;2023-04-19T12:45:17;99288.63;;;16.42;97.91
41947;BME280;27638;42.184;24.848;2023-04-19T12:47:44;99282.44;;;16.48;95.69
41947;BME280;27638;42.184;24.848;2023-04-19T12:50:12;99280.59;;;16.49;96.54
41947;BME280;27638;42.184;24.848;2023-04-19T12:52:38;99279.81;;;16.35;92.10
41947;BME280;27638;42.184;24.848;2023-04-19T12:55:04;99268.13;;;16.29;89.10
41947;BME280;27638;42.184;24.848;2023-04-19T12:57:30;99268.00;;;15.91;91.85